createdAt,value
2018-10-01T00:00:49.127Z,8.80
2018-10-01T00:03:17.671Z,9.17
2018-10-01T00:05:45.899Z,8.97
2018-10-01T00:08:14.126Z,9.37
2018-10-01T00:10:42.326Z,9.10
2018-10-01T00:13:10.559Z,9.23
2018-10-01T00:15:38.776Z,9.23
2018-10-01T00:18:07.011Z,9.27
2018-10-01T00:20:40.626Z,9.87
2018-10-01T00:23:08.870Z,10.20
2018-10-01T00:25:37.089Z,9.63
2018-10-01T00:28:05.319Z,8.43
2018-10-01T00:30:33.525Z,9.07
2018-10-01T00:33:01.748Z,10.20
2018-10-01T00:35:29.944Z,8.57
2018-10-01T00:37:58.367Z,9.30
2018-10-01T00:40:26.637Z,8.87
2018-10-01T00:42:54.936Z,9.53
2018-10-01T00:45:23.207Z,8.87
2018-10-01T00:47:51.435Z,8.80
2018-10-01T00:50:19.694Z,8.57
2018-10-01T00:52:47.883Z,9.40
2018-10-01T00:55:16.118Z,9.27
2018-10-01T00:57:44.394Z,10.10
2018-10-01T01:00:12.752Z,8.93
2018-10-01T01:02:41.188Z,9.47
2018-10-01T01:05:11.480Z,9.07
2018-10-01T01:07:39.744Z,8.57
2018-10-01T01:10:08.194Z,9.07
2018-10-01T01:12:36.379Z,8.27
2018-10-01T01:15:04.690Z,8.60
2018-10-01T01:17:32.996Z,9.13
2018-10-01T01:20:01.573Z,8.70
2018-10-01T01:22:29.804Z,9.10
2018-10-01T01:24:58.283Z,9.57
2018-10-01T01:27:26.747Z,10.30
2018-10-01T01:29:55.063Z,9.53
2018-10-01T01:32:23.328Z,8.23
2018-10-01T01:34:51.635Z,9.37
2018-10-01T01:37:19.864Z,8.83
2018-10-01T01:39:48.115Z,9.03
2018-10-01T01:42:16.355Z,8.33
2018-10-01T01:44:44.826Z,8.27
2018-10-01T01:47:13.014Z,8.67
2018-10-01T01:49:41.235Z,9.03
2018-10-01T01:52:09.572Z,8.37
2018-10-01T01:54:37.895Z,9.63
2018-10-01T01:57:06.386Z,7.87
2018-10-01T01:59:34.763Z,9.23
2018-10-01T02:02:03.111Z,8.13
2018-10-01T02:04:31.392Z,8.53
2018-10-01T02:06:59.678Z,8.33
2018-10-01T02:09:28.143Z,9.03
2018-10-01T02:11:56.615Z,8.87
2018-10-01T02:14:25.092Z,7.43
2018-10-01T02:16:53.367Z,8.17
2018-10-01T02:19:21.599Z,7.23
2018-10-01T02:21:49.862Z,8.20
2018-10-01T02:24:18.176Z,8.50
2018-10-01T02:26:46.542Z,8.23
2018-10-01T02:29:14.988Z,9.17
2018-10-01T02:31:43.266Z,9.60
2018-10-01T02:34:11.501Z,8.20
2018-10-01T02:36:39.731Z,9.10
2018-10-01T02:39:10.322Z,8.50
2018-10-01T02:41:38.781Z,9.07
2018-10-01T02:44:07.203Z,8.93
2018-10-01T02:46:35.512Z,8.17
2018-10-01T02:49:03.780Z,8.10
2018-10-01T02:51:34.127Z,8.70
2018-10-01T02:54:07.828Z,8.60
2018-10-01T02:56:36.126Z,8.57
2018-10-01T02:59:04.652Z,8.43
2018-10-01T03:01:33.131Z,7.83
2018-10-01T03:04:01.482Z,7.97
2018-10-01T03:06:29.746Z,7.80
2018-10-01T03:08:57.994Z,7.53
2018-10-01T03:11:26.499Z,9.53
2018-10-01T03:13:54.983Z,9.27
2018-10-01T03:16:23.616Z,9.10
2018-10-01T03:18:51.930Z,8.73
2018-10-01T03:21:20.216Z,9.40
2018-10-01T03:23:48.417Z,9.10
2018-10-01T03:26:16.628Z,8.30
2018-10-01T03:28:44.867Z,8.50
2018-10-01T03:31:13.437Z,10.50
2018-10-01T03:33:41.678Z,8.97
2018-10-01T03:36:09.933Z,9.90
2018-10-01T03:38:38.169Z,10.20
2018-10-01T03:41:06.840Z,9.97
2018-10-01T03:43:35.124Z,10.30
2018-10-01T03:46:03.443Z,9.13
2018-10-01T03:48:31.718Z,9.73
2018-10-01T03:50:59.980Z,8.17
2018-10-01T03:53:28.198Z,8.63
2018-10-01T03:55:56.456Z,8.10
2018-10-01T03:58:24.767Z,9.87
2018-10-01T04:00:53.006Z,9.83
2018-10-01T04:03:21.267Z,9.93
2018-10-01T04:05:49.710Z,10.10
2018-10-01T04:08:18.183Z,10.80
2018-10-01T04:10:46.735Z,10.00
2018-10-01T04:13:14.978Z,11.20
2018-10-01T04:15:43.287Z,9.77
2018-10-01T04:18:11.534Z,9.97
2018-10-01T04:20:39.775Z,11.13
2018-10-01T04:23:07.978Z,11.53
2018-10-01T04:25:36.642Z,11.37
2018-10-01T04:28:04.930Z,10.93
2018-10-01T04:30:33.107Z,13.10
2018-10-01T04:33:01.579Z,12.67
2018-10-01T04:35:29.821Z,12.40
2018-10-01T04:37:58.075Z,12.43
2018-10-01T04:40:26.338Z,11.83
2018-10-01T04:42:54.833Z,14.00
2018-10-01T04:45:23.047Z,13.93
2018-10-01T04:47:51.690Z,13.17
2018-10-01T04:50:19.946Z,13.77
2018-10-01T04:52:48.140Z,13.37
2018-10-01T04:55:16.377Z,12.73
2018-10-01T04:57:44.632Z,13.53
2018-10-01T05:00:13.069Z,13.50
2018-10-01T05:02:41.329Z,12.90
2018-10-01T05:05:10.473Z,13.63
2018-10-01T05:07:38.657Z,13.13
2018-10-01T05:10:07.120Z,13.43
2018-10-01T05:12:35.319Z,13.13
2018-10-01T05:15:03.553Z,14.07
2018-10-01T05:17:32.796Z,15.70
2018-10-01T05:20:01.007Z,14.23
2018-10-01T05:22:29.258Z,14.60
2018-10-01T05:24:57.866Z,14.30
2018-10-01T05:27:26.088Z,15.80
2018-10-01T05:29:54.387Z,16.77
2018-10-01T05:32:22.615Z,15.33
2018-10-01T05:34:50.959Z,15.87
2018-10-01T05:37:19.199Z,16.17
2018-10-01T05:39:47.517Z,16.67
2018-10-01T05:42:17.316Z,16.80
2018-10-01T05:44:45.690Z,15.77
2018-10-01T05:47:13.918Z,17.40
2018-10-01T05:49:42.107Z,16.17
2018-10-01T05:52:10.319Z,15.23
2018-10-01T05:54:38.528Z,16.93
2018-10-01T05:57:06.758Z,15.47
2018-10-01T05:59:35.058Z,14.33
2018-10-01T06:02:03.478Z,14.33
2018-10-01T06:04:31.717Z,14.13
2018-10-01T06:06:59.922Z,15.40
2018-10-01T06:09:28.303Z,14.53
2018-10-01T06:11:56.689Z,16.20
2018-10-01T06:14:24.846Z,15.37
2018-10-01T06:16:53.068Z,16.10
2018-10-01T06:19:21.294Z,16.40
2018-10-01T06:21:49.491Z,15.73
2018-10-01T06:24:17.683Z,15.20
2018-10-01T06:26:45.910Z,15.00
2018-10-01T06:29:14.344Z,13.73
2018-10-01T06:31:42.554Z,16.13
2018-10-01T06:34:10.998Z,16.23
2018-10-01T06:36:39.188Z,15.53
2018-10-01T06:39:09.729Z,16.03
2018-10-01T06:41:38.237Z,17.30
2018-10-01T06:44:06.525Z,16.57
2018-10-01T06:46:34.753Z,16.60
2018-10-01T06:49:03.056Z,17.00
2018-10-01T06:51:31.297Z,17.57
2018-10-01T06:53:59.512Z,17.13
2018-10-01T06:56:27.715Z,17.10
2018-10-01T06:58:55.926Z,17.67
2018-10-01T07:01:24.192Z,17.47
2018-10-01T07:03:52.450Z,18.47
2018-10-01T07:06:20.664Z,18.27
2018-10-01T07:08:48.875Z,18.10
2018-10-01T07:11:17.122Z,17.63
2018-10-01T07:13:45.343Z,17.20
2018-10-01T07:16:13.581Z,17.10
2018-10-01T07:18:41.795Z,16.20
2018-10-01T07:21:10.022Z,17.53
2018-10-01T07:23:38.295Z,15.13
2018-10-01T07:26:06.499Z,13.63
2018-10-01T07:28:34.774Z,15.13
2018-10-01T07:31:03.128Z,14.13
2018-10-01T07:33:31.327Z,14.73
2018-10-01T07:35:59.778Z,14.83
2018-10-01T07:38:27.987Z,15.13
2018-10-01T07:40:56.242Z,14.13
2018-10-01T07:43:24.482Z,12.97
2018-10-01T07:45:52.715Z,14.17
2018-10-01T07:48:20.955Z,12.93
2018-10-01T07:50:49.231Z,12.80
2018-10-01T07:53:17.735Z,12.70
2018-10-01T07:55:46.157Z,14.53
2018-10-01T07:58:14.396Z,13.73
2018-10-01T08:00:42.691Z,12.33
2018-10-01T08:03:11.173Z,19.00
2018-10-01T08:05:39.656Z,11.13
2018-10-01T08:08:07.941Z,10.77
2018-10-01T08:10:36.207Z,11.57
2018-10-01T08:13:04.451Z,11.57
2018-10-01T08:15:32.716Z,10.67
2018-10-01T08:18:00.954Z,11.57
2018-10-01T08:20:29.258Z,10.53
2018-10-01T08:22:57.498Z,10.87
2018-10-01T08:25:25.802Z,9.33
2018-10-01T08:27:54.258Z,9.83
2018-10-01T08:30:22.491Z,8.37
2018-10-01T08:32:50.771Z,9.23
2018-10-01T08:35:19.264Z,11.37
2018-10-01T08:37:47.552Z,8.63
2018-10-01T08:40:15.859Z,8.33
2018-10-01T08:42:45.124Z,8.60
2018-10-01T08:45:14.534Z,7.63
2018-10-01T08:47:43.038Z,8.43
2018-10-01T08:50:18.608Z,7.90
2018-10-01T08:53:54.715Z,7.03
2018-10-01T08:56:23.097Z,6.83
2018-10-01T08:58:51.406Z,6.75
2018-10-01T09:01:19.884Z,6.45
2018-10-01T09:03:48.188Z,6.35
2018-10-01T09:06:16.971Z,5.80
2018-10-01T09:08:45.316Z,5.42
2018-10-01T09:11:13.565Z,4.95
2018-10-01T09:13:41.887Z,5.37
2018-10-01T09:16:10.354Z,5.10
2018-10-01T09:18:39.216Z,4.70
2018-10-01T09:21:07.780Z,4.92
2018-10-01T09:23:36.499Z,4.92
2018-10-01T09:26:04.767Z,5.28
2018-10-01T09:28:33.187Z,4.95
2018-10-01T09:31:01.539Z,5.08
2018-10-01T09:33:29.695Z,5.10
2018-10-01T09:35:58.012Z,5.35
2018-10-01T09:38:26.469Z,5.03
2018-10-01T09:40:55.108Z,5.28
2018-10-01T09:43:23.363Z,4.97
2018-10-01T09:45:51.586Z,5.85
2018-10-01T09:48:19.782Z,5.15
2018-10-01T09:50:47.998Z,4.87
2018-10-01T09:53:16.207Z,4.95
2018-10-01T09:55:44.651Z,4.92
2018-10-01T09:58:13.095Z,5.05
2018-10-01T10:00:47.339Z,4.70
2018-10-01T10:03:15.693Z,4.83
2018-10-01T10:05:44.065Z,4.85
2018-10-01T10:08:12.777Z,5.17
2018-10-01T10:10:41.029Z,4.62
2018-10-01T10:13:09.472Z,3.87
2018-10-01T10:15:37.835Z,4.45
2018-10-01T10:18:06.670Z,4.42
2018-10-01T10:20:35.074Z,4.37
2018-10-01T10:23:03.594Z,4.72
2018-10-01T10:25:31.920Z,3.90
2018-10-01T10:28:00.575Z,3.75
2018-10-01T10:30:36.060Z,3.55
2018-10-01T10:33:04.374Z,3.87
2018-10-01T10:35:33.038Z,4.37
2018-10-01T10:38:01.311Z,4.60
2018-10-01T10:40:29.801Z,4.17
2018-10-01T10:42:58.075Z,3.10
2018-10-01T10:45:26.403Z,3.62
2018-10-01T10:47:54.853Z,3.20
2018-10-01T10:50:23.653Z,3.62
2018-10-01T10:52:52.153Z,3.65
2018-10-01T10:55:20.465Z,3.47
2018-10-01T10:57:48.757Z,3.42
2018-10-01T11:00:17.032Z,3.80
2018-10-01T11:02:45.397Z,3.25
2018-10-01T11:05:13.774Z,3.25
2018-10-01T11:07:42.053Z,3.30
2018-10-01T11:10:10.324Z,3.47
2018-10-01T11:12:38.639Z,3.33
2018-10-01T11:15:07.774Z,3.60
2018-10-01T11:17:35.874Z,3.58
2018-10-01T11:20:05.169Z,3.67
2018-10-01T11:22:33.371Z,3.60
2018-10-01T11:25:01.565Z,3.65
2018-10-01T11:27:29.899Z,3.25
2018-10-01T11:29:58.602Z,3.47
2018-10-01T11:32:26.882Z,3.33
2018-10-01T11:34:55.440Z,3.37
2018-10-01T11:37:23.695Z,4.17
2018-10-01T11:39:51.976Z,3.50
2018-10-01T11:42:20.470Z,3.70
2018-10-01T11:44:48.748Z,3.92
2018-10-01T11:47:17.039Z,3.40
2018-10-01T11:49:45.396Z,3.80
2018-10-01T11:52:13.669Z,4.22
2018-10-01T11:54:41.907Z,4.12
2018-10-01T11:57:10.225Z,3.45
2018-10-01T11:59:38.443Z,3.92
2018-10-01T12:02:06.734Z,3.65
2018-10-01T12:04:35.220Z,3.95
2018-10-01T12:07:03.537Z,4.45
2018-10-01T12:09:31.816Z,3.70
2018-10-01T12:12:01.023Z,3.47
2018-10-01T12:14:29.306Z,3.45
2018-10-01T12:16:57.543Z,3.87
2018-10-01T12:19:25.751Z,3.62
2018-10-01T12:21:54.242Z,3.87
2018-10-01T12:24:22.484Z,4.40
2018-10-01T12:26:50.774Z,3.75
2018-10-01T12:29:19.305Z,4.22
2018-10-01T12:31:47.479Z,4.42
2018-10-01T12:34:15.706Z,4.40
2018-10-01T12:36:43.920Z,4.65
2018-10-01T12:39:12.196Z,4.10
2018-10-01T12:41:40.435Z,4.70
2018-10-01T12:44:08.693Z,4.87
2018-10-01T12:46:37.152Z,4.33
2018-10-01T12:49:05.361Z,4.75
2018-10-01T12:51:33.625Z,4.28
2018-10-01T12:54:01.837Z,4.53
2018-10-01T12:56:30.182Z,4.58
2018-10-01T12:58:58.466Z,4.65
2018-10-01T13:01:26.670Z,4.60
2018-10-01T13:03:54.939Z,5.42
2018-10-01T13:06:23.240Z,6.65
2018-10-01T13:08:51.581Z,6.20
2018-10-01T13:11:20.651Z,6.33
2018-10-01T13:13:49.316Z,6.55
2018-10-01T13:16:25.481Z,7.25
2018-10-01T13:18:54.307Z,6.80
2018-10-01T13:21:41.272Z,6.83
2018-10-01T13:24:29.953Z,6.45
2018-10-01T13:26:58.343Z,6.78
2018-10-01T13:29:27.786Z,6.10
2018-10-01T13:31:56.779Z,6.83
2018-10-01T13:34:25.231Z,5.72
2018-10-01T13:36:53.572Z,7.65
2018-10-01T13:39:22.031Z,8.05
2018-10-01T13:41:50.343Z,7.80
2018-10-01T13:44:25.585Z,6.85
2018-10-01T13:46:54.259Z,7.50
2018-10-01T13:49:22.949Z,9.40
2018-10-01T13:51:51.417Z,8.23
2018-10-01T13:54:19.932Z,7.97
2018-10-01T13:56:48.179Z,7.20
2018-10-01T13:59:16.512Z,8.08
2018-10-01T14:01:45.019Z,7.20
2018-10-01T14:04:13.206Z,7.55
2018-10-01T14:06:41.763Z,7.42
2018-10-01T14:09:11.347Z,6.45
2018-10-01T14:11:39.726Z,8.48
2018-10-01T14:14:08.030Z,7.08
2018-10-01T14:16:36.174Z,6.85
2018-10-01T14:19:04.395Z,7.83
2018-10-01T14:21:32.562Z,6.25
2018-10-01T14:24:00.779Z,7.30
2018-10-01T14:26:29.059Z,6.40
2018-10-01T14:28:57.335Z,5.58
2018-10-01T14:31:25.692Z,5.50
2018-10-01T14:33:54.092Z,5.33
2018-10-01T14:36:22.562Z,4.55
2018-10-01T14:38:50.871Z,5.05
2018-10-01T14:41:19.303Z,5.92
2018-10-01T14:43:47.708Z,4.42
2018-10-01T14:46:16.059Z,4.03
2018-10-01T14:48:44.638Z,3.37
2018-10-01T14:51:14.204Z,3.50
2018-10-01T14:53:47.572Z,3.40
2018-10-01T14:56:21.045Z,3.00
2018-10-01T14:58:51.684Z,3.33
2018-10-01T15:01:20.902Z,3.40
2018-10-01T15:03:59.687Z,3.30
2018-10-01T15:06:30.834Z,3.13
2018-10-01T15:09:01.159Z,2.97
2018-10-01T15:11:31.610Z,3.47
2018-10-01T15:14:06.126Z,3.50
2018-10-01T15:16:35.537Z,3.60
2018-10-01T15:19:04.061Z,3.53
2018-10-01T15:21:33.076Z,5.97
2018-10-01T15:24:01.674Z,3.37
2018-10-01T15:26:29.961Z,3.57
2018-10-01T15:28:58.302Z,5.93
2018-10-01T15:31:26.664Z,3.40
2018-10-01T15:33:55.062Z,3.30
2018-10-01T15:36:23.538Z,3.13
2018-10-01T15:38:51.865Z,3.23
2018-10-01T15:41:20.345Z,2.90
2018-10-01T15:43:48.757Z,3.20
2018-10-01T15:46:17.173Z,2.60
2018-10-01T15:48:45.607Z,3.40
2018-10-01T15:51:14.038Z,3.03
2018-10-01T15:53:42.470Z,2.97
2018-10-01T15:56:10.952Z,2.90
2018-10-01T15:58:39.322Z,3.03
2018-10-01T16:01:07.866Z,4.73
2018-10-01T16:03:36.335Z,4.33
2018-10-01T16:06:04.948Z,3.23
2018-10-01T16:08:33.373Z,1.90
2018-10-01T16:11:01.865Z,2.53
2018-10-01T16:13:30.255Z,1.80
2018-10-01T16:15:58.720Z,2.50
2018-10-01T16:18:27.220Z,2.10
2018-10-01T16:20:55.686Z,2.10
2018-10-01T16:23:24.090Z,1.97
2018-10-01T16:25:52.563Z,1.87
2018-10-01T16:28:21.085Z,2.10
2018-10-01T16:30:49.525Z,2.00
2018-10-01T16:33:17.968Z,1.87
2018-10-01T16:35:46.357Z,2.53
2018-10-01T16:38:14.961Z,1.70
2018-10-01T16:40:43.325Z,2.10
2018-10-01T16:45:45.397Z,1.73
2018-10-01T16:48:13.810Z,2.00
2018-10-01T16:50:43.691Z,1.90
2018-10-01T16:53:12.141Z,1.43
2018-10-01T16:55:40.620Z,1.43
2018-10-01T16:58:09.035Z,1.80
2018-10-01T17:00:37.374Z,2.13
2018-10-01T17:03:05.790Z,2.03
2018-10-01T17:05:34.209Z,1.80
2018-10-01T17:08:02.513Z,1.77
2018-10-01T17:10:30.847Z,1.63
2018-10-01T17:12:59.314Z,1.60
2018-10-01T17:15:27.861Z,1.30
2018-10-01T17:17:56.229Z,2.00
2018-10-01T17:20:24.583Z,1.70
2018-10-01T17:22:52.988Z,1.63
2018-10-01T17:25:21.547Z,1.97
2018-10-01T17:27:49.976Z,2.10
2018-10-01T17:30:18.475Z,1.40
2018-10-01T17:32:46.797Z,2.40
2018-10-01T17:35:15.227Z,1.70
2018-10-01T17:37:43.726Z,1.67
2018-10-01T17:40:12.804Z,1.70
2018-10-01T17:42:41.202Z,1.40
2018-10-01T17:45:09.575Z,1.90
2018-10-01T17:47:37.965Z,1.97
2018-10-01T17:50:06.407Z,1.80
2018-10-01T17:52:34.804Z,2.17
2018-10-01T17:55:03.171Z,1.70
2018-10-01T17:57:31.563Z,1.90
2018-10-01T17:59:59.924Z,1.67
2018-10-01T18:02:28.287Z,1.77
2018-10-01T18:04:56.612Z,2.17
2018-10-01T18:07:25.026Z,1.83
2018-10-01T18:09:53.580Z,1.87
2018-10-01T18:12:22.020Z,2.40
2018-10-01T18:14:50.382Z,1.90
2018-10-01T18:17:18.762Z,2.50
2018-10-01T18:19:47.158Z,2.37
2018-10-01T18:22:15.882Z,2.47
2018-10-01T18:24:44.451Z,2.27
2018-10-01T18:27:12.913Z,2.40
2018-10-01T18:29:41.333Z,2.73
2018-10-01T18:32:09.617Z,2.10
2018-10-01T18:34:37.966Z,2.40
2018-10-01T18:37:06.398Z,2.83
2018-10-01T18:39:34.796Z,2.40
2018-10-01T18:42:03.448Z,2.83
2018-10-01T18:44:31.827Z,2.30
2018-10-01T18:47:00.264Z,2.60
2018-10-01T18:49:28.698Z,2.60
2018-10-01T18:51:57.065Z,2.83
2018-10-01T18:54:25.401Z,3.20
2018-10-01T18:56:53.814Z,3.10
2018-10-01T18:59:22.256Z,3.00
2018-10-01T19:01:50.676Z,3.67
2018-10-01T19:04:19.098Z,3.47
2018-10-01T19:06:47.585Z,3.97
2018-10-01T19:09:16.165Z,3.33
2018-10-01T19:11:44.662Z,3.40
2018-10-01T19:14:13.108Z,4.50
2018-10-01T19:16:41.524Z,3.33
2018-10-01T19:19:09.980Z,3.67
2018-10-01T19:21:38.927Z,3.47
2018-10-01T19:24:07.449Z,3.27
2018-10-01T19:26:35.894Z,3.30
2018-10-01T19:29:04.329Z,3.17
2018-10-01T19:31:32.811Z,3.47
2018-10-01T19:34:01.266Z,3.43
2018-10-01T19:36:29.595Z,3.60
2018-10-01T19:38:58.069Z,3.37
2018-10-01T19:41:26.411Z,3.63
2018-10-01T19:43:54.803Z,3.83
2018-10-01T19:46:23.210Z,3.50
2018-10-01T19:48:51.550Z,3.60
2018-10-01T19:51:20.058Z,3.70
2018-10-01T19:53:48.481Z,3.10
2018-10-01T19:56:16.777Z,3.17
2018-10-01T19:58:45.273Z,2.50
2018-10-01T20:01:13.579Z,3.53
2018-10-01T20:03:42.051Z,3.43
2018-10-01T20:06:11.034Z,3.13
2018-10-01T20:11:29.830Z,3.20
2018-10-01T20:13:58.438Z,3.20
2018-10-01T20:16:28.015Z,3.40
2018-10-01T20:18:56.742Z,3.60
2018-10-01T20:21:25.515Z,3.10
2018-10-01T20:23:54.430Z,3.57
2018-10-01T20:32:49.369Z,3.47
2018-10-01T20:35:17.758Z,3.07
2018-10-01T20:37:45.953Z,3.13
2018-10-01T20:40:14.209Z,2.93
2018-10-01T20:42:42.769Z,3.10
2018-10-01T20:45:10.973Z,2.83
2018-10-01T20:47:39.218Z,2.80
2018-10-01T20:50:07.445Z,2.60
2018-10-01T20:52:35.739Z,2.90
2018-10-01T20:55:03.880Z,2.60
2018-10-01T20:57:32.095Z,2.90
2018-10-01T21:00:00.309Z,2.83
2018-10-01T21:02:28.909Z,3.00
2018-10-01T21:04:57.334Z,3.13
2018-10-01T21:07:25.540Z,2.57
2018-10-01T21:09:53.770Z,2.93
2018-10-01T21:12:22.201Z,2.90
2018-10-01T21:14:50.506Z,3.07
2018-10-01T21:17:18.697Z,3.10
2018-10-01T21:19:46.915Z,3.03
2018-10-01T21:22:15.390Z,3.07
2018-10-01T21:24:43.594Z,3.40
2018-10-01T21:27:11.855Z,2.90
2018-10-01T21:29:40.112Z,3.07
2018-10-01T21:32:08.306Z,2.87
2018-10-01T21:34:37.626Z,2.63
2018-10-01T21:37:05.820Z,2.50
2018-10-01T21:40:14.858Z,2.60
2018-10-01T21:42:43.585Z,2.80
2018-10-01T21:45:13.279Z,2.27
2018-10-01T21:47:41.707Z,2.77
2018-10-01T21:50:09.928Z,2.83
2018-10-01T21:52:38.179Z,2.63
2018-10-01T21:55:06.479Z,2.53
2018-10-01T21:57:34.703Z,2.40
2018-10-01T22:00:02.935Z,3.00
2018-10-01T22:02:31.171Z,2.17
2018-10-01T22:04:59.367Z,2.33
2018-10-01T22:07:27.567Z,2.33
2018-10-01T22:09:55.833Z,2.30
2018-10-01T22:12:24.068Z,1.93
2018-10-01T22:14:52.270Z,4.17
2018-10-01T22:17:20.487Z,2.20
2018-10-01T22:19:48.994Z,2.20
2018-10-01T22:22:17.216Z,2.23
2018-10-01T22:24:45.422Z,1.93
2018-10-01T22:27:13.671Z,2.03
2018-10-01T22:29:41.918Z,2.20
2018-10-01T22:32:10.346Z,1.63
2018-10-01T22:34:38.582Z,1.67
2018-10-01T22:37:06.787Z,1.63
2018-10-01T22:39:35.223Z,1.67
2018-10-01T22:42:03.427Z,1.30
2018-10-01T22:44:31.631Z,1.60
2018-10-01T22:46:59.881Z,1.27
2018-10-01T22:49:28.079Z,2.67
2018-10-01T22:51:56.321Z,1.30
2018-10-01T22:54:24.543Z,1.23
2018-10-01T22:56:52.751Z,1.30
2018-10-01T22:59:20.955Z,1.60
2018-10-01T23:01:49.399Z,1.60
2018-10-01T23:04:17.659Z,1.90
2018-10-01T23:06:45.951Z,1.67
2018-10-01T23:09:14.150Z,2.07
2018-10-01T23:11:42.661Z,1.60
2018-10-01T23:14:10.866Z,1.60
2018-10-01T23:16:39.129Z,1.60
2018-10-01T23:19:07.319Z,1.43
2018-10-01T23:21:35.515Z,1.80
2018-10-01T23:24:03.766Z,1.60
2018-10-01T23:26:32.037Z,1.97
2018-10-01T23:29:00.282Z,1.77
2018-10-01T23:31:28.511Z,1.60
2018-10-01T23:33:56.762Z,1.50
2018-10-01T23:36:24.957Z,1.53
2018-10-01T23:38:53.187Z,2.33
2018-10-01T23:41:21.505Z,2.30
2018-10-01T23:43:49.843Z,2.70
2018-10-01T23:46:18.062Z,2.10
2018-10-01T23:48:46.324Z,2.13
2018-10-01T23:51:14.607Z,2.20
2018-10-01T23:53:43.279Z,1.97
2018-10-01T23:56:11.542Z,1.93
2018-10-01T23:58:39.826Z,2.03
